Richland Springs, TX

9:08 AM CST on March 06, 2015 (GMT -0600)
LCRA Richland Springs 11 N | Change Station
CLOSE
Current Station
Personal Weather Station
Location: Richland Springs, TX
Elevation: 1353 ft
Nearby Weather Stations

Elev 1353 ft 31.43 °N, 98.95 °W | Updated 43 minutes ago

Clear
Clear
28.0 °F
Feels Like 28.0 °F
N
-
Wind Variable Wind from North

Today
High -- | Low -- °F
--% Chance of Precip.
Yesterday
High -- | Low -- °F
Precip. -- in
6:57 AM 6:37 PM
Full, 99% visible
Pressure 30.52 in
Visibility 10.0 miles
Clouds Clear
Dew Point 24.0 °F
Humidity 85%
Rainfall in
Snow Depth Not available.
UV 1 out of 12
Pollen 7.60 out of 12
Air Quality Not available.
Flu Activity Not available.
METAR KBBD 061415Z AUTO 16003KT 10SM CLR M02/M07 A3052 RMK

More Conditions Fewer Conditions

Pressure 30.52 in
Visibility 10.0 miles
Clouds Clear
Dew Point 24.0 °F
Humidity 85%
Rainfall in
Snow Depth Not available.
UV 1 out of 12
Pollen 7.60 out of 12
Air Quality Not available.
Flu Activity Not available.
METAR KBBD 061415Z AUTO 16003KT 10SM CLR M02/M07 A3052 RMK

More Conditions Fewer Conditions

10-Day Weather Forecast

Almanac

Astronomy

Mar. 06, 2015 Rise Set
Actual Time
Civil Twilight
Nautical Twilight
Astronomical Twilight
Moon
Length of Visible Light
Length of Day
Tomorrow will be .
, % of the Moon is Illuminated

Today's Extremes

State Highs State Lows

Community

WunderPhotos

Upload Photos

1,803,296 photos uploaded!

WunderBlogs® & News

Nearby

Air Quality

  Air Quality AQ Index Pollutant
Not available.

Snow Depth

Station Depth Elevation

Earthquake Activity

City Distance Mag. Time & Date
Minimum magnitude displayed is 2.5.

Coastal Water Temperatures

Place Temperature

Nearby Weather Stations